Terminal Aerodrome Forecast
Issued by NWS

Current Version | Previous Version | Graphics & Text | Print | Product List | Glossary On
Versions: 1 2 3 4 5 6 7 8 9 10 11 12 13 14 15 16 17 18 19 20 21 22 23 24
000
FTUS41 KILN 291136
TAFLCK
TAF
KLCK 291136Z 2912/3012 20010G15KT P6SM VCTS OVC035CB
      TEMPO 2912/2916 3SM TSRA OVC025CB
     FM291600 26006KT P6SM VCTS OVC040CB
      TEMPO 2916/2920 4SM TSRA OVC025CB
     FM292000 12008KT P6SM VCSH SCT035 BKN090
     FM300100 12004KT P6SM BKN045
     FM300900 16005KT P6SM BKN120=

USA.gov is the U.S. government's official web portal to all federal, state and local government web resources and services.